createdAt,value
2019-05-20T00:00:31.321Z,64.16
2019-05-20T00:03:00.401Z,64.28
2019-05-20T00:05:29.498Z,64.30
2019-05-20T00:07:58.537Z,64.43
2019-05-20T00:10:27.621Z,64.51
2019-05-20T00:12:56.678Z,64.61
2019-05-20T00:15:25.757Z,64.62
2019-05-20T00:17:54.734Z,64.69
2019-05-20T00:20:23.735Z,64.73
2019-05-20T00:22:52.790Z,64.88
2019-05-20T00:25:21.870Z,64.90
2019-05-20T00:27:50.930Z,65.05
2019-05-20T00:30:20.002Z,65.14
2019-05-20T00:32:49.054Z,65.22
2019-05-20T00:35:18.130Z,65.35
2019-05-20T00:37:47.211Z,65.46
2019-05-20T00:40:16.768Z,65.69
2019-05-20T00:42:45.822Z,65.79
2019-05-20T00:45:15.213Z,65.85
2019-05-20T00:47:44.299Z,65.94
2019-05-20T00:50:13.493Z,65.98
2019-05-20T00:52:42.643Z,65.99
2019-05-20T00:55:23.768Z,66.14
2019-05-20T00:57:52.753Z,66.18
2019-05-20T01:00:21.926Z,66.28
2019-05-20T01:02:56.768Z,66.40
2019-05-20T01:05:21.793Z,66.49
2019-05-20T01:07:50.869Z,66.58
2019-05-20T01:13:49.050Z,66.67
2019-05-20T01:16:18.050Z,66.72
2019-05-20T01:18:47.088Z,66.78
2019-05-20T01:21:16.001Z,66.84
2019-05-20T01:23:45.041Z,66.91
2019-05-20T01:26:14.109Z,67.05
2019-05-20T01:28:43.158Z,67.08
2019-05-20T01:31:12.246Z,67.17
2019-05-20T01:33:41.222Z,67.34
2019-05-20T01:36:10.219Z,67.35
2019-05-20T01:38:39.266Z,67.47
2019-05-20T01:41:08.342Z,67.54
2019-05-20T01:43:37.395Z,67.61
2019-05-20T01:46:06.498Z,67.59
2019-05-20T01:48:35.481Z,67.66
2019-05-20T01:51:04.649Z,67.69
2019-05-20T01:53:33.699Z,67.73
2019-05-20T01:56:03.051Z,67.80
2019-05-20T01:58:32.177Z,67.93
2019-05-20T02:01:01.187Z,67.96
2019-05-20T02:03:32.335Z,67.98
2019-05-20T02:06:01.057Z,68.01
2019-05-20T02:08:30.098Z,68.04
2019-05-20T02:10:59.172Z,68.07
2019-05-20T02:13:47.135Z,68.13
2019-05-20T02:16:16.653Z,68.18
2019-05-20T02:18:45.710Z,68.31
2019-05-20T02:21:14.776Z,68.38
2019-05-20T02:23:43.824Z,68.54
2019-05-20T02:26:12.904Z,68.63
2019-05-20T02:28:41.950Z,68.66
2019-05-20T02:31:11.029Z,68.83
2019-05-20T02:33:51.826Z,68.91
2019-05-20T02:36:10.801Z,68.96
2019-05-20T02:38:39.845Z,68.98
2019-05-20T02:41:08.944Z,69.06
2019-05-20T02:43:37.977Z,69.11
2019-05-20T02:46:07.327Z,69.16
2019-05-20T02:48:36.375Z,69.12
2019-05-20T02:51:05.438Z,69.17
2019-05-20T02:53:34.421Z,69.33
2019-05-20T02:56:03.480Z,69.35
2019-05-20T02:58:32.532Z,69.28
2019-05-20T03:01:01.611Z,69.37
2019-05-20T03:03:30.588Z,69.41
2019-05-20T03:05:59.671Z,69.54
2019-05-20T03:08:28.708Z,69.62
2019-05-20T03:10:57.782Z,69.69
2019-05-20T03:13:26.839Z,69.68
2019-05-20T03:15:55.982Z,69.69
2019-05-20T03:18:25.041Z,69.80
2019-05-20T03:20:54.038Z,69.86
2019-05-20T03:23:23.015Z,69.91
2019-05-20T03:25:52.072Z,69.82
2019-05-20T03:28:21.121Z,69.87
2019-05-20T03:30:50.206Z,69.90
2019-05-20T03:33:19.203Z,69.93
2019-05-20T03:35:48.229Z,69.99
2019-05-20T03:38:17.299Z,69.99
2019-05-20T03:40:46.334Z,70.04
2019-05-20T03:43:15.407Z,70.08
2019-05-20T03:45:44.389Z,70.13
2019-05-20T03:48:13.469Z,70.21
2019-05-20T03:50:42.539Z,70.23
2019-05-20T03:53:11.608Z,70.29
2019-05-20T03:55:40.658Z,70.45
2019-05-20T03:58:13.246Z,70.54
2019-05-20T04:00:45.769Z,70.55
2019-05-20T04:03:15.277Z,70.62
2019-05-20T04:05:45.382Z,70.67
2019-05-20T04:08:14.558Z,70.83
2019-05-20T04:10:43.584Z,70.97
2019-05-20T04:13:12.657Z,71.16
2019-05-20T04:15:41.643Z,71.34
2019-05-20T04:18:10.729Z,71.01
2019-05-20T04:20:39.785Z,71.16
2019-05-20T04:23:08.844Z,71.35
2019-05-20T04:25:37.894Z,71.54
2019-05-20T04:28:06.959Z,71.79
2019-05-20T04:30:36.000Z,71.97
2019-05-20T04:33:05.084Z,72.17
2019-05-20T04:35:34.119Z,72.38
2019-05-20T04:38:03.185Z,72.59
2019-05-20T04:40:32.256Z,72.80
2019-05-20T04:43:01.322Z,73.04
2019-05-20T04:45:30.362Z,73.23
2019-05-20T04:47:59.459Z,73.43
2019-05-20T04:50:28.510Z,73.65
2019-05-20T04:52:58.698Z,73.83
2019-05-20T04:55:27.670Z,73.85
2019-05-20T04:57:56.740Z,73.97
2019-05-20T05:00:53.934Z,74.01
2019-05-20T05:03:23.100Z,74.08
2019-05-20T05:05:52.347Z,74.12
2019-05-20T05:08:21.933Z,74.16
2019-05-20T05:10:51.204Z,74.24
2019-05-20T05:13:20.619Z,74.33
2019-05-20T05:15:49.692Z,74.48
2019-05-20T05:18:18.876Z,74.48
2019-05-20T05:20:47.954Z,74.50
2019-05-20T05:23:17.132Z,74.47
2019-05-20T05:25:46.214Z,74.38
2019-05-20T05:28:15.278Z,74.37
2019-05-20T05:30:46.327Z,74.27
2019-05-20T05:33:15.391Z,74.18
2019-05-20T05:35:52.807Z,74.06
2019-05-20T05:38:15.295Z,74.06
2019-05-20T05:40:44.326Z,74.05
2019-05-20T05:43:13.401Z,73.96
2019-05-20T05:45:42.373Z,74.00
2019-05-20T05:48:11.504Z,74.00
2019-05-20T05:50:40.566Z,73.83
2019-05-20T05:53:09.645Z,73.86
2019-05-20T05:55:38.615Z,73.81
2019-05-20T05:58:08.736Z,73.72
2019-05-20T06:00:38.028Z,73.55
2019-05-20T06:03:07.077Z,73.44
2019-05-20T06:05:36.173Z,73.38
2019-05-20T06:08:05.199Z,73.45
2019-05-20T06:10:35.907Z,73.42
2019-05-20T06:13:05.217Z,73.37
2019-05-20T06:15:34.284Z,73.33
2019-05-20T06:18:03.351Z,73.39
2019-05-20T06:20:32.407Z,73.31
2019-05-20T06:23:01.462Z,73.25
2019-05-20T06:25:30.525Z,73.26
2019-05-20T06:27:59.558Z,73.35
2019-05-20T06:30:40.761Z,73.36
2019-05-20T06:33:09.828Z,73.17
2019-05-20T06:35:38.997Z,72.89
2019-05-20T06:38:12.280Z,72.75
2019-05-20T06:40:41.276Z,72.80
2019-05-20T06:43:10.248Z,72.76
2019-05-20T06:45:39.313Z,72.57
2019-05-20T06:48:08.303Z,72.40
2019-05-20T06:50:37.299Z,72.35
2019-05-20T06:53:08.699Z,72.24
2019-05-20T06:55:37.692Z,72.04
2019-05-20T06:58:06.740Z,71.70
2019-05-20T07:00:37.356Z,71.49
2019-05-20T07:03:07.204Z,71.35
2019-05-20T07:05:36.286Z,71.10
2019-05-20T07:08:05.329Z,71.07
2019-05-20T07:10:34.399Z,71.17
2019-05-20T07:13:03.459Z,71.30
2019-05-20T07:15:32.536Z,71.18
2019-05-20T07:18:01.592Z,71.11
2019-05-20T07:20:30.656Z,71.05
2019-05-20T07:22:59.712Z,70.95
2019-05-20T07:25:28.775Z,70.94
2019-05-20T07:27:57.847Z,70.75
2019-05-20T07:30:26.932Z,70.48
2019-05-20T07:32:55.995Z,70.43
2019-05-20T07:35:30.038Z,69.90
2019-05-20T07:37:55.847Z,69.65
2019-05-20T07:40:34.297Z,69.64
2019-05-20T07:43:05.522Z,69.61
2019-05-20T07:45:36.559Z,69.49
2019-05-20T07:48:06.967Z,69.30
2019-05-20T07:50:39.103Z,69.16
2019-05-20T07:53:09.795Z,68.90
2019-05-20T07:55:47.004Z,68.81
2019-05-20T07:58:18.942Z,68.75
2019-05-20T08:00:48.175Z,68.54
2019-05-20T08:03:17.338Z,68.31
2019-05-20T08:05:46.435Z,68.00
2019-05-20T08:08:15.520Z,67.81
2019-05-20T08:10:44.609Z,67.63
2019-05-20T08:13:13.634Z,67.53
2019-05-20T08:15:42.711Z,67.52
2019-05-20T08:18:11.762Z,67.21
2019-05-20T08:20:40.840Z,67.01
2019-05-20T08:23:09.900Z,66.95
2019-05-20T08:25:39.104Z,66.89
2019-05-20T08:28:08.163Z,66.77
2019-05-20T08:30:38.145Z,66.38
2019-05-20T08:33:08.000Z,66.19
2019-05-20T08:35:37.094Z,66.00
2019-05-20T08:38:06.163Z,65.68
2019-05-20T08:40:35.248Z,65.76
2019-05-20T08:43:04.349Z,65.56
2019-05-20T08:45:33.473Z,65.05
2019-05-20T08:48:02.567Z,64.71
2019-05-20T08:50:31.732Z,64.36
2019-05-20T08:53:00.807Z,64.04
2019-05-20T08:55:29.896Z,63.83
2019-05-20T08:57:58.957Z,63.41
2019-05-20T09:00:28.164Z,63.22
2019-05-20T09:02:57.194Z,63.14
2019-05-20T09:05:28.454Z,63.14
2019-05-20T09:08:03.138Z,62.78
2019-05-20T09:10:27.896Z,63.01
2019-05-20T09:12:56.973Z,62.16
2019-05-20T09:15:26.193Z,61.94
2019-05-20T09:17:55.177Z,60.82
2019-05-20T09:20:24.510Z,60.67
2019-05-20T09:22:53.844Z,60.91
2019-05-20T09:25:30.737Z,59.99
2019-05-20T09:28:00.206Z,60.00
2019-05-20T09:30:29.304Z,59.82
2019-05-20T09:32:58.364Z,59.78
2019-05-20T09:35:27.499Z,59.41
2019-05-20T09:37:56.750Z,59.37
2019-05-20T09:40:39.853Z,56.84
2019-05-20T09:43:09.098Z,57.36
2019-05-20T09:45:38.803Z,57.15
2019-05-20T09:48:08.006Z,57.44
2019-05-20T09:50:37.115Z,57.35
2019-05-20T09:53:07.804Z,57.18
2019-05-20T09:55:37.176Z,56.69
2019-05-20T09:58:07.159Z,55.90
2019-05-20T10:00:36.530Z,56.27
2019-05-20T10:03:07.474Z,55.86
2019-05-20T10:05:37.607Z,55.29
2019-05-20T10:08:07.113Z,54.85
2019-05-20T10:10:36.556Z,55.03
2019-05-20T10:13:06.099Z,54.63
2019-05-20T10:15:35.465Z,55.29
2019-05-20T10:18:04.554Z,55.10
2019-05-20T10:20:33.741Z,55.44
2019-05-20T10:23:02.840Z,54.79
2019-05-20T10:25:31.919Z,54.11
2019-05-20T10:28:01.018Z,54.54
2019-05-20T10:30:30.090Z,54.72
2019-05-20T10:32:59.168Z,54.47
2019-05-20T10:35:28.228Z,54.29
2019-05-20T10:37:57.242Z,53.74
2019-05-20T10:40:26.315Z,53.76
2019-05-20T10:42:55.416Z,53.43
2019-05-20T10:45:24.484Z,52.36
2019-05-20T10:47:53.605Z,51.63
2019-05-20T10:50:22.658Z,51.67
2019-05-20T10:52:51.735Z,51.67
2019-05-20T10:55:20.795Z,52.14
2019-05-20T10:57:49.800Z,52.79
2019-05-20T11:00:18.967Z,51.33
2019-05-20T11:02:48.077Z,49.98
2019-05-20T11:05:18.038Z,48.69
2019-05-20T11:07:47.242Z,48.29
2019-05-20T11:10:16.338Z,48.44
2019-05-20T11:12:45.472Z,47.81
2019-05-20T11:15:14.523Z,46.79
2019-05-20T11:17:43.593Z,47.06
2019-05-20T11:20:12.856Z,46.07
2019-05-20T11:22:41.939Z,46.09
2019-05-20T11:25:10.994Z,45.75
2019-05-20T11:27:40.089Z,45.72
2019-05-20T11:30:11.103Z,46.04
2019-05-20T11:32:40.200Z,45.96
2019-05-20T11:35:09.567Z,45.79
2019-05-20T11:37:38.649Z,44.73
2019-05-20T11:40:09.848Z,42.95
2019-05-20T11:42:39.327Z,42.18
2019-05-20T11:45:08.606Z,42.02
2019-05-20T11:47:37.730Z,42.53
2019-05-20T11:50:07.013Z,42.96
2019-05-20T11:52:36.091Z,43.33
2019-05-20T11:55:05.312Z,42.13
2019-05-20T11:57:34.567Z,41.03
2019-05-20T12:00:03.778Z,40.70
2019-05-20T12:02:32.808Z,40.36
2019-05-20T12:05:01.881Z,40.12
2019-05-20T12:07:30.990Z,39.94
2019-05-20T12:10:00.076Z,40.70
2019-05-20T12:12:29.130Z,41.15
2019-05-20T12:14:58.230Z,40.68
2019-05-20T12:17:27.222Z,40.25
2019-05-20T12:19:56.294Z,39.33
2019-05-20T12:22:25.275Z,38.67
2019-05-20T12:24:54.358Z,38.12
2019-05-20T12:27:23.425Z,38.79
2019-05-20T12:29:52.456Z,38.58
2019-05-20T12:32:21.498Z,38.54
2019-05-20T12:34:50.437Z,39.07
2019-05-20T12:37:19.512Z,38.63
2019-05-20T12:40:05.538Z,38.16
2019-05-20T12:42:19.381Z,38.13
2019-05-20T12:44:48.467Z,38.62
2019-05-20T12:47:17.390Z,38.58
2019-05-20T12:49:46.473Z,37.27
2019-05-20T12:52:15.544Z,36.15
2019-05-20T12:54:44.631Z,36.24
2019-05-20T12:57:13.720Z,36.66
2019-05-20T12:59:42.804Z,36.60
2019-05-20T13:02:11.870Z,36.75
2019-05-20T13:04:40.973Z,36.70
2019-05-20T13:07:10.037Z,36.86
2019-05-20T13:09:39.116Z,36.75
2019-05-20T13:12:08.184Z,36.95
2019-05-20T13:14:37.275Z,37.14
2019-05-20T13:17:06.347Z,37.45
2019-05-20T13:19:35.415Z,37.73
2019-05-20T13:22:04.490Z,38.20
2019-05-20T13:24:33.598Z,38.64
2019-05-20T13:27:02.681Z,38.93
2019-05-20T13:29:31.760Z,38.66
2019-05-20T13:32:00.825Z,39.68
2019-05-20T13:34:29.909Z,41.11
2019-05-20T13:36:58.983Z,42.25
2019-05-20T13:39:28.067Z,43.91
2019-05-20T13:41:57.132Z,43.91
2019-05-20T13:44:26.218Z,44.38
2019-05-20T13:46:55.305Z,44.65
2019-05-20T13:49:24.319Z,44.92
2019-05-20T13:51:53.394Z,45.04
2019-05-20T13:54:22.410Z,45.55
2019-05-20T13:56:51.491Z,45.55
2019-05-20T13:59:20.572Z,45.55
2019-05-20T14:01:49.643Z,45.65
2019-05-20T14:04:18.734Z,46.15
2019-05-20T14:06:47.849Z,46.93
2019-05-20T14:09:16.955Z,47.25
2019-05-20T14:11:46.029Z,47.64
2019-05-20T14:14:15.141Z,47.89
2019-05-20T14:16:44.213Z,47.93
2019-05-20T14:19:13.302Z,47.76
2019-05-20T14:21:42.289Z,47.75
2019-05-20T14:24:11.357Z,47.78
2019-05-20T14:26:40.484Z,48.02
2019-05-20T14:29:09.628Z,47.98
2019-05-20T14:31:38.709Z,47.81
2019-05-20T14:34:08.121Z,47.79
2019-05-20T14:36:39.736Z,47.74
2019-05-20T14:39:08.006Z,47.69
2019-05-20T14:41:37.129Z,47.69
2019-05-20T14:44:06.239Z,47.23
2019-05-20T14:46:35.312Z,46.78
2019-05-20T14:49:04.420Z,46.46
2019-05-20T14:51:33.542Z,46.06
2019-05-20T14:54:02.609Z,46.10
2019-05-20T14:56:31.669Z,46.01
2019-05-20T14:59:00.744Z,45.93
2019-05-20T15:01:29.880Z,45.96
2019-05-20T15:03:58.901Z,46.52
2019-05-20T15:06:28.001Z,47.38
2019-05-20T15:08:57.140Z,48.24
2019-05-20T15:11:37.554Z,48.77
2019-05-20T15:14:00.086Z,49.57
2019-05-20T15:16:27.879Z,50.68
2019-05-20T15:18:56.941Z,51.39
2019-05-20T15:21:29.412Z,51.92
2019-05-20T15:23:56.882Z,52.47
2019-05-20T15:26:25.944Z,52.97
2019-05-20T15:28:55.018Z,53.46
2019-05-20T15:31:24.109Z,54.05
2019-05-20T15:33:53.199Z,54.74
2019-05-20T15:36:22.245Z,55.41
2019-05-20T15:38:51.338Z,55.79
2019-05-20T15:41:20.370Z,56.10
2019-05-20T15:43:49.367Z,56.27
2019-05-20T15:46:18.457Z,56.51
2019-05-20T15:48:47.551Z,56.92
2019-05-20T15:51:16.646Z,57.34
2019-05-20T15:53:45.714Z,57.28
2019-05-20T15:56:14.733Z,57.14
2019-05-20T16:02:45.019Z,58.66
2019-05-20T16:05:14.098Z,59.31
2019-05-20T16:07:43.192Z,59.52
2019-05-20T16:10:12.460Z,59.73
2019-05-20T16:12:41.564Z,59.98
2019-05-20T16:15:11.032Z,60.25
2019-05-20T16:17:40.145Z,60.68
2019-05-20T16:20:09.708Z,60.90
2019-05-20T16:22:38.786Z,61.06
2019-05-20T16:25:07.964Z,61.32
2019-05-20T16:27:37.040Z,61.18
2019-05-20T16:30:07.581Z,61.38
2019-05-20T16:32:36.743Z,61.26
2019-05-20T16:35:06.361Z,61.29
2019-05-20T16:37:35.450Z,61.30
2019-05-20T16:40:05.066Z,60.74
2019-05-20T16:42:34.163Z,60.33
2019-05-20T16:45:03.261Z,60.61
2019-05-20T16:47:32.371Z,61.02
2019-05-20T16:50:01.364Z,61.05
2019-05-20T16:52:30.488Z,61.06
2019-05-20T16:54:59.607Z,61.03
2019-05-20T16:57:28.673Z,61.26
2019-05-20T16:59:57.723Z,60.92
2019-05-20T17:02:26.850Z,61.05
2019-05-20T17:04:55.910Z,61.35
2019-05-20T17:07:25.002Z,61.61
2019-05-20T17:09:54.012Z,61.91
2019-05-20T17:12:23.079Z,62.36
2019-05-20T17:14:52.147Z,62.68
2019-05-20T17:17:21.207Z,62.80
2019-05-20T17:19:50.286Z,61.90
2019-05-20T17:22:20.130Z,62.54
2019-05-20T17:24:49.203Z,62.71
2019-05-20T17:27:18.271Z,62.98
2019-05-20T17:29:47.281Z,63.28
2019-05-20T17:32:16.339Z,64.10
2019-05-20T17:34:45.404Z,64.69
2019-05-20T17:37:14.467Z,65.16
2019-05-20T17:39:43.565Z,65.58
2019-05-20T17:42:12.631Z,66.18
2019-05-20T17:44:41.699Z,66.55
2019-05-20T17:47:10.885Z,66.96
2019-05-20T17:49:39.967Z,67.19
2019-05-20T17:52:09.033Z,67.43
2019-05-20T17:54:38.124Z,67.61
2019-05-20T17:57:07.197Z,67.71
2019-05-20T17:59:36.765Z,67.89
2019-05-20T18:02:07.757Z,68.01
2019-05-20T18:04:36.839Z,68.13
2019-05-20T18:07:05.894Z,68.15
2019-05-20T18:09:37.180Z,68.20
2019-05-20T18:12:06.243Z,68.35
2019-05-20T18:14:35.351Z,68.46
2019-05-20T18:17:04.406Z,68.49
2019-05-20T18:19:33.485Z,68.53
2019-05-20T18:22:02.555Z,68.49
2019-05-20T18:24:31.629Z,68.57
2019-05-20T18:27:00.685Z,68.58
2019-05-20T18:29:29.689Z,68.76
2019-05-20T18:31:58.744Z,68.91
2019-05-20T18:34:27.815Z,69.00
2019-05-20T18:36:56.899Z,69.12
2019-05-20T18:39:25.974Z,69.25
2019-05-20T18:41:55.036Z,69.37
2019-05-20T18:44:24.120Z,69.44
2019-05-20T18:46:53.199Z,69.47
2019-05-20T18:49:22.285Z,69.54
2019-05-20T18:51:51.341Z,69.47
2019-05-20T18:54:20.411Z,69.74
2019-05-20T18:56:49.485Z,69.75
2019-05-20T18:59:18.636Z,70.03
2019-05-20T19:02:03.823Z,70.35
2019-05-20T19:04:19.661Z,70.33
2019-05-20T19:06:48.718Z,70.60
2019-05-20T19:09:17.888Z,70.79
2019-05-20T19:11:46.950Z,70.73
2019-05-20T19:14:16.054Z,70.68
2019-05-20T19:16:45.137Z,70.76
2019-05-20T19:19:14.213Z,70.99
2019-05-20T19:21:43.270Z,71.19
2019-05-20T19:24:12.363Z,71.32
2019-05-20T19:26:41.415Z,71.29
2019-05-20T19:29:10.341Z,71.33
2019-05-20T19:31:39.396Z,71.52
2019-05-20T19:34:08.461Z,71.58
2019-05-20T19:36:37.536Z,71.68
2019-05-20T19:39:07.426Z,71.78
2019-05-20T19:41:36.513Z,71.86
2019-05-20T19:44:05.578Z,72.07
2019-05-20T19:46:34.647Z,72.22
2019-05-20T19:49:03.732Z,72.28
2019-05-20T19:51:32.806Z,72.37
2019-05-20T19:54:01.784Z,72.56
2019-05-20T19:56:30.869Z,72.74
2019-05-20T19:58:59.794Z,73.03
2019-05-20T20:01:28.889Z,73.20
2019-05-20T20:03:57.943Z,73.44
2019-05-20T20:06:27.018Z,73.73
2019-05-20T20:08:56.068Z,74.01
2019-05-20T20:11:25.162Z,74.13
2019-05-20T20:13:54.213Z,74.28
2019-05-20T20:16:23.303Z,74.37
2019-05-20T20:18:52.359Z,74.44
2019-05-20T20:21:21.438Z,74.57
2019-05-20T20:23:50.493Z,74.75
2019-05-20T20:26:19.572Z,75.05
2019-05-20T20:28:48.640Z,75.30
2019-05-20T20:31:17.723Z,75.54
2019-05-20T20:33:46.811Z,75.74
2019-05-20T20:36:15.910Z,75.80
2019-05-20T20:38:44.879Z,75.80
2019-05-20T20:41:13.953Z,75.78
2019-05-20T20:43:43.003Z,75.84
2019-05-20T20:46:12.080Z,75.90
2019-05-20T20:48:41.082Z,75.93
2019-05-20T20:51:10.171Z,75.99
2019-05-20T20:53:39.238Z,76.08
2019-05-20T20:56:22.704Z,76.06
2019-05-20T20:58:39.014Z,76.09
2019-05-20T21:01:08.084Z,76.06
2019-05-20T21:03:37.136Z,75.99
2019-05-20T21:06:06.222Z,75.99
2019-05-20T21:08:35.220Z,76.03
2019-05-20T21:11:04.299Z,76.04
2019-05-20T21:13:33.380Z,75.95
2019-05-20T21:16:02.373Z,75.97
2019-05-20T21:18:31.421Z,75.99
2019-05-20T21:21:00.490Z,75.98
2019-05-20T21:23:29.467Z,76.01
2019-05-20T21:25:58.467Z,75.99
2019-05-20T21:28:27.525Z,75.99
2019-05-20T21:30:56.603Z,75.99
2019-05-20T21:33:25.661Z,75.98
2019-05-20T21:35:54.729Z,75.99
2019-05-20T21:38:23.637Z,76.01
2019-05-20T21:40:52.699Z,76.00
2019-05-20T21:43:21.786Z,76.05
2019-05-20T21:45:50.983Z,76.01
2019-05-20T21:48:20.139Z,76.03
2019-05-20T21:50:49.209Z,76.05
2019-05-20T21:53:18.202Z,76.11
2019-05-20T21:55:47.207Z,76.23
2019-05-20T21:58:16.297Z,76.30
2019-05-20T22:00:52.842Z,76.33
2019-05-20T22:03:24.529Z,76.46
2019-05-20T22:05:52.721Z,76.58
2019-05-20T22:08:21.795Z,76.63
2019-05-20T22:10:50.912Z,76.76
2019-05-20T22:13:20.028Z,76.80
2019-05-20T22:15:49.072Z,76.90
2019-05-20T22:18:18.152Z,76.96
2019-05-20T22:20:47.210Z,76.96
2019-05-20T22:23:27.174Z,76.86
2019-05-20T22:25:56.722Z,76.87
2019-05-20T22:28:25.793Z,76.83
2019-05-20T22:30:54.837Z,76.79
2019-05-20T22:33:23.914Z,76.80
2019-05-20T22:35:52.965Z,76.75
2019-05-20T22:38:22.041Z,76.78
2019-05-20T22:40:51.095Z,76.71
2019-05-20T22:43:20.102Z,76.67
2019-05-20T22:45:49.076Z,76.78
2019-05-20T22:48:18.103Z,76.91
2019-05-20T22:50:48.906Z,76.92
2019-05-20T22:53:18.124Z,76.93
2019-05-20T22:55:47.183Z,76.98
2019-05-20T22:58:16.264Z,77.01
2019-05-20T23:00:45.319Z,77.00
2019-05-20T23:03:14.395Z,77.02
2019-05-20T23:05:43.446Z,77.11
2019-05-20T23:08:12.511Z,77.23
2019-05-20T23:10:41.572Z,77.31
2019-05-20T23:13:10.664Z,77.30
2019-05-20T23:15:39.639Z,77.29
2019-05-20T23:18:08.731Z,77.40
2019-05-20T23:20:37.783Z,77.44
2019-05-20T23:23:06.862Z,77.43
2019-05-20T23:25:35.937Z,77.45
2019-05-20T23:28:05.009Z,77.45
2019-05-20T23:30:34.064Z,77.52
2019-05-20T23:33:03.138Z,77.55
2019-05-20T23:35:32.048Z,77.56
2019-05-20T23:38:01.131Z,77.57
2019-05-20T23:40:30.182Z,77.60
2019-05-20T23:42:59.255Z,77.63
2019-05-20T23:45:28.314Z,77.67
2019-05-20T23:47:57.339Z,77.76
2019-05-20T23:50:26.334Z,77.83
2019-05-20T23:52:55.345Z,77.81
2019-05-20T23:55:24.396Z,77.81
2019-05-20T23:57:53.394Z,77.86
